sensor_id;sensor_type;location;lat;lon;timestamp;pressure;altitude;pressure_sealevel;temperature;humidity
64243;BME280;50573;51.512;5.386;2022-08-21T00:09:05;101605.41;;;13.41;96.47
64243;BME280;50573;51.512;5.386;2022-08-21T00:19:09;101593.34;;;13.31;97.32
64243;BME280;50573;51.512;5.386;2022-08-21T00:29:13;101596.84;;;13.19;97.69
64243;BME280;50573;51.512;5.386;2022-08-21T00:39:16;101589.06;;;13.13;99.07
64243;BME280;50573;51.512;5.386;2022-08-21T00:49:21;101583.88;;;13.11;99.76
64243;BME280;50573;51.512;5.386;2022-08-21T00:59:26;101582.19;;;13.12;99.18
64243;BME280;50573;51.512;5.386;2022-08-21T01:09:32;101585.63;;;13.11;98.70
64243;BME280;50573;51.512;5.386;2022-08-21T01:19:35;101592.56;;;13.03;99.61
64243;BME280;50573;51.512;5.386;2022-08-21T01:29:43;101574.44;;;12.96;99.50
64243;BME280;50573;51.512;5.386;2022-08-21T01:39:47;101576.19;;;12.93;98.93
64243;BME280;50573;51.512;5.386;2022-08-21T01:49:52;101572.75;;;12.81;99.42
64243;BME280;50573;51.512;5.386;2022-08-21T01:59:55;101572.81;;;12.63;99.98
64243;BME280;50573;51.512;5.386;2022-08-21T02:10:00;101559.03;;;12.48;100.00
64243;BME280;50573;51.512;5.386;2022-08-21T02:20:03;101546.94;;;12.35;100.00
64243;BME280;50573;51.512;5.386;2022-08-21T02:30:11;101556.44;;;12.25;100.00
64243;BME280;50573;51.512;5.386;2022-08-21T02:40:16;101554.72;;;12.17;100.00
64243;BME280;50573;51.512;5.386;2022-08-21T02:50:23;101548.72;;;12.05;100.00
64243;BME280;50573;51.512;5.386;2022-08-21T03:00:29;101553.91;;;12.02;100.00
64243;BME280;50573;51.512;5.386;2022-08-21T03:10:34;101554.75;;;12.07;100.00
64243;BME280;50573;51.512;5.386;2022-08-21T03:20:39;101547.84;;;11.97;100.00
64243;BME280;50573;51.512;5.386;2022-08-21T03:30:44;101545.22;;;11.88;100.00
64243;BME280;50573;51.512;5.386;2022-08-21T03:40:48;101542.63;;;11.75;100.00
64243;BME280;50573;51.512;5.386;2022-08-21T03:50:52;101534.88;;;11.74;100.00
64243;BME280;50573;51.512;5.386;2022-08-21T04:00:57;101532.25;;;11.71;100.00
64243;BME280;50573;51.512;5.386;2022-08-21T04:11:02;101532.25;;;11.72;100.00
64243;BME280;50573;51.512;5.386;2022-08-21T04:21:07;101544.34;;;11.67;100.00
64243;BME280;50573;51.512;5.386;2022-08-21T04:31:15;101554.69;;;11.59;100.00
64243;BME280;50573;51.512;5.386;2022-08-21T04:41:18;101564.16;;;11.57;100.00
64243;BME280;50573;51.512;5.386;2022-08-21T04:51:33;101566.75;;;11.56;100.00
64243;BME280;50573;51.512;5.386;2022-08-21T05:01:38;101559.00;;;11.59;100.00
64243;BME280;50573;51.512;5.386;2022-08-21T05:11:44;101570.25;;;11.72;100.00
64243;BME280;50573;51.512;5.386;2022-08-21T05:21:47;101578.91;;;11.92;100.00
64243;BME280;50573;51.512;5.386;2022-08-21T05:31:53;101578.06;;;12.13;100.00
64243;BME280;50573;51.512;5.386;2022-08-21T05:41:56;101583.22;;;12.40;100.00
64243;BME280;50573;51.512;5.386;2022-08-21T05:52:00;101580.59;;;12.66;100.00
64243;BME280;50573;51.512;5.386;2022-08-21T06:02:04;101574.44;;;12.92;100.00
64243;BME280;50573;51.512;5.386;2022-08-21T06:12:11;101589.94;;;13.18;100.00
64243;BME280;50573;51.512;5.386;2022-08-21T06:22:15;101580.28;;;13.48;100.00
64243;BME280;50573;51.512;5.386;2022-08-21T06:32:19;101578.28;;;13.85;100.00
64243;BME280;50573;51.512;5.386;2022-08-21T06:42:22;101581.41;;;14.28;100.00
64243;BME280;50573;51.512;5.386;2022-08-21T06:52:30;101585.34;;;14.73;99.51
64243;BME280;50573;51.512;5.386;2022-08-21T07:02:33;101588.28;;;15.17;98.85
64243;BME280;50573;51.512;5.386;2022-08-21T07:12:43;101574.50;;;15.71;97.56
64243;BME280;50573;51.512;5.386;2022-08-21T07:22:47;101573.41;;;16.39;95.26
64243;BME280;50573;51.512;5.386;2022-08-21T07:32:51;101571.03;;;16.72;93.32
64243;BME280;50573;51.512;5.386;2022-08-21T07:42:54;101574.94;;;16.96;93.29
64243;BME280;50573;51.512;5.386;2022-08-21T07:52:59;101561.22;;;17.27;90.34
64243;BME280;50573;51.512;5.386;2022-08-21T08:03:02;101572.94;;;17.50;89.79
64243;BME280;50573;51.512;5.386;2022-08-21T08:13:06;101569.34;;;17.92;87.21
64243;BME280;50573;51.512;5.386;2022-08-21T08:23:11;101563.22;;;18.27;86.06
64243;BME280;50573;51.512;5.386;2022-08-21T08:33:16;101561.25;;;18.67;83.57
64243;BME280;50573;51.512;5.386;2022-08-21T08:43:19;101548.94;;;19.02;81.90
64243;BME280;50573;51.512;5.386;2022-08-21T08:53:29;101546.00;;;19.69;80.27
64243;BME280;50573;51.512;5.386;2022-08-21T09:03:33;101534.59;;;20.22;76.83
64243;BME280;50573;51.512;5.386;2022-08-21T09:13:46;101519.41;;;20.32;74.16
64243;BME280;50573;51.512;5.386;2022-08-21T09:23:59;101524.94;;;20.24;71.78
64243;BME280;50573;51.512;5.386;2022-08-21T09:34:06;101510.19;;;20.69;67.62
64243;BME280;50573;51.512;5.386;2022-08-21T09:44:13;101526.28;;;21.07;67.76
64243;BME280;50573;51.512;5.386;2022-08-21T09:54:18;101517.31;;;21.35;65.90
64243;BME280;50573;51.512;5.386;2022-08-21T10:04:29;101513.34;;;21.69;64.86
64243;BME280;50573;51.512;5.386;2022-08-21T10:14:44;101501.81;;;21.71;62.96
64243;BME280;50573;51.512;5.386;2022-08-21T10:24:55;101515.91;;;21.70;60.91
64243;BME280;50573;51.512;5.386;2022-08-21T10:35:07;101509.50;;;21.97;59.65
64243;BME280;50573;51.512;5.386;2022-08-21T10:45:40;101503.81;;;22.26;57.42
64243;BME280;50573;51.512;5.386;2022-08-21T10:55:52;101496.44;;;22.55;58.15
64243;BME280;50573;51.512;5.386;2022-08-21T11:06:00;101499.00;;;22.95;57.18
64243;BME280;50573;51.512;5.386;2022-08-21T11:16:11;101491.81;;;23.18;55.48
64243;BME280;50573;51.512;5.386;2022-08-21T11:26:18;101487.09;;;23.42;54.95
64243;BME280;50573;51.512;5.386;2022-08-21T11:36:34;101476.41;;;23.62;52.90
64243;BME280;50573;51.512;5.386;2022-08-21T11:46:47;101473.75;;;23.62;50.34
64243;BME280;50573;51.512;5.386;2022-08-21T11:56:55;101497.63;;;23.96;49.20
64243;BME280;50573;51.512;5.386;2022-08-21T12:07:10;101493.94;;;24.49;46.83
64243;BME280;50573;51.512;5.386;2022-08-21T12:17:19;101497.06;;;23.89;49.40
64243;BME280;50573;51.512;5.386;2022-08-21T12:27:28;101486.72;;;24.19;49.25
64243;BME280;50573;51.512;5.386;2022-08-21T12:37:40;101481.16;;;24.58;46.91
64243;BME280;50573;51.512;5.386;2022-08-21T12:47:48;101479.47;;;24.88;46.08
64243;BME280;50573;51.512;5.386;2022-08-21T12:57:54;101490.69;;;24.44;47.86
64243;BME280;50573;51.512;5.386;2022-08-21T13:08:03;101485.81;;;24.36;46.71
64243;BME280;50573;51.512;5.386;2022-08-21T13:18:20;101487.41;;;25.20;44.29
64243;BME280;50573;51.512;5.386;2022-08-21T13:28:32;101481.75;;;25.87;41.15
64243;BME280;50573;51.512;5.386;2022-08-21T13:38:40;101475.03;;;25.67;43.30
64243;BME280;50573;51.512;5.386;2022-08-21T13:48:44;101483.22;;;25.16;43.65
64243;BME280;50573;51.512;5.386;2022-08-21T13:58:48;101474.88;;;25.08;44.20
64243;BME280;50573;51.512;5.386;2022-08-21T14:08:54;101472.66;;;25.00;44.92
64243;BME280;50573;51.512;5.386;2022-08-21T14:19:10;101458.28;;;25.36;44.05
64243;BME280;50573;51.512;5.386;2022-08-21T14:29:15;101463.38;;;24.77;47.20
64243;BME280;50573;51.512;5.386;2022-08-21T14:39:21;101458.63;;;24.68;46.33
64243;BME280;50573;51.512;5.386;2022-08-21T14:49:26;101450.66;;;25.00;46.14
64243;BME280;50573;51.512;5.386;2022-08-21T14:59:31;101459.22;;;25.66;43.40
64243;BME280;50573;51.512;5.386;2022-08-21T15:09:35;101463.03;;;24.99;45.98
64243;BME280;50573;51.512;5.386;2022-08-21T15:19:39;101462.94;;;24.85;45.57
64243;BME280;50573;51.512;5.386;2022-08-21T15:29:42;101455.94;;;24.84;46.62
64243;BME280;50573;51.512;5.386;2022-08-21T15:39:47;101454.53;;;25.40;46.02
64243;BME280;50573;51.512;5.386;2022-08-21T15:49:54;101458.38;;;25.19;45.15
64243;BME280;50573;51.512;5.386;2022-08-21T16:00:03;101457.97;;;25.11;45.56
64243;BME280;50573;51.512;5.386;2022-08-21T16:10:14;101460.13;;;25.04;45.51
64243;BME280;50573;51.512;5.386;2022-08-21T16:20:20;101459.53;;;24.67;45.76
64243;BME280;50573;51.512;5.386;2022-08-21T16:30:26;101457.91;;;24.31;46.88
64243;BME280;50573;51.512;5.386;2022-08-21T16:40:30;101456.06;;;23.99;47.20
64243;BME280;50573;51.512;5.386;2022-08-21T16:50:35;101454.94;;;23.53;48.45
64243;BME280;50573;51.512;5.386;2022-08-21T17:00:40;101449.16;;;23.08;49.94
64243;BME280;50573;51.512;5.386;2022-08-21T17:10:44;101464.97;;;22.71;51.77
64243;BME280;50573;51.512;5.386;2022-08-21T17:20:51;101471.31;;;22.27;53.52
64243;BME280;50573;51.512;5.386;2022-08-21T17:30:56;101474.31;;;21.99;55.05
64243;BME280;50573;51.512;5.386;2022-08-21T17:41:08;101467.47;;;21.74;56.58
64243;BME280;50573;51.512;5.386;2022-08-21T17:51:11;101473.44;;;21.57;57.63
64243;BME280;50573;51.512;5.386;2022-08-21T18:01:17;101477.06;;;21.33;58.07
64243;BME280;50573;51.512;5.386;2022-08-21T18:11:23;101476.53;;;21.02;59.52
64243;BME280;50573;51.512;5.386;2022-08-21T18:21:30;101481.88;;;20.77;60.38
64243;BME280;50573;51.512;5.386;2022-08-21T18:31:35;101480.25;;;20.49;61.59
64243;BME280;50573;51.512;5.386;2022-08-21T18:41:40;101477.63;;;20.26;62.49
64243;BME280;50573;51.512;5.386;2022-08-21T18:51:44;101485.66;;;19.96;63.86
64243;BME280;50573;51.512;5.386;2022-08-21T19:01:49;101488.09;;;19.75;64.66
64243;BME280;50573;51.512;5.386;2022-08-21T19:11:52;101509.88;;;19.51;66.26
64243;BME280;50573;51.512;5.386;2022-08-21T19:21:57;101504.41;;;19.30;67.15
64243;BME280;50573;51.512;5.386;2022-08-21T19:32:01;101511.13;;;19.10;67.68
64243;BME280;50573;51.512;5.386;2022-08-21T19:42:07;101515.13;;;18.94;68.86
64243;BME280;50573;51.512;5.386;2022-08-21T19:52:10;101515.47;;;18.82;69.27
64243;BME280;50573;51.512;5.386;2022-08-21T20:02:35;101510.56;;;18.69;69.50
64243;BME280;50573;51.512;5.386;2022-08-21T20:12:48;101524.97;;;18.54;69.94
64243;BME280;50573;51.512;5.386;2022-08-21T20:22:53;101523.78;;;18.33;71.91
64243;BME280;50573;51.512;5.386;2022-08-21T20:32:56;101524.22;;;18.16;72.77
64243;BME280;50573;51.512;5.386;2022-08-21T20:43:02;101519.41;;;18.01;74.65
64243;BME280;50573;51.512;5.386;2022-08-21T20:53:11;101520.50;;;17.92;74.38
64243;BME280;50573;51.512;5.386;2022-08-21T21:03:21;101514.66;;;17.81;75.91
64243;BME280;50573;51.512;5.386;2022-08-21T21:13:33;101506.97;;;17.74;76.19
64243;BME280;50573;51.512;5.386;2022-08-21T21:23:43;101498.47;;;17.66;75.52
64243;BME280;50573;51.512;5.386;2022-08-21T21:33:47;101504.00;;;17.52;75.39
64243;BME280;50573;51.512;5.386;2022-08-21T21:44:07;101509.72;;;17.32;76.18
64243;BME280;50573;51.512;5.386;2022-08-21T21:54:21;101514.59;;;17.10;77.33
64243;BME280;50573;51.512;5.386;2022-08-21T22:04:35;101513.28;;;16.91;79.83
64243;BME280;50573;51.512;5.386;2022-08-21T22:14:51;101521.69;;;16.60;82.53
64243;BME280;50573;51.512;5.386;2022-08-21T22:25:00;101517.09;;;16.27;84.12
64243;BME280;50573;51.512;5.386;2022-08-21T22:35:13;101518.38;;;16.03;85.01
64243;BME280;50573;51.512;5.386;2022-08-21T22:45:19;101523.03;;;15.86;86.65
64243;BME280;50573;51.512;5.386;2022-08-21T22:55:25;101509.38;;;15.70;87.52
64243;BME280;50573;51.512;5.386;2022-08-21T23:05:34;101513.78;;;15.64;88.40
64243;BME280;50573;51.512;5.386;2022-08-21T23:15:43;101514.78;;;15.56;89.45
64243;BME280;50573;51.512;5.386;2022-08-21T23:26:01;101512.16;;;15.56;90.40
64243;BME280;50573;51.512;5.386;2022-08-21T23:36:22;101502.59;;;15.58;90.35
64243;BME280;50573;51.512;5.386;2022-08-21T23:46:59;101508.69;;;15.57;91.36
64243;BME280;50573;51.512;5.386;2022-08-21T23:57:11;101507.75;;;15.61;91.75
